Time;durP1;ratioP1;P1;durP2;ratioP2;P2;SDS_P1;SDS_P2;PMS_P1;PMS_P2;Temp;Humidity;BMP_temperature;BMP_pressure;BME280_temperature;BME280_humidity;BME280_pressure;Samples;Min_cycle;Max_cycle;Signal;HPM_P1;HPM_P2
2022/04/07 00:01:09;;;;;;;3.43;3.17;;;;;;;;;;5069223;28;20191;-60
2022/04/07 00:03:35;;;;;;;3.00;2.70;;;;;;;;;;5055254;28;20180;-60
2022/04/07 00:06:01;;;;;;;3.17;2.93;;;;;;;;;;5062570;28;20190;-58
2022/04/07 00:08:30;;;;;;;3.13;2.43;;;;;;;;;;5063165;28;20604;-60
2022/04/07 00:10:56;;;;;;;3.20;2.90;;;;;;;;;;5068326;28;20230;-59
2022/04/07 00:13:22;;;;;;;2.70;2.50;;;;;;;;;;5067596;28;20189;-58
2022/04/07 00:15:49;;;;;;;3.07;2.70;;;;;;;;;;5048706;28;20543;-59
2022/04/07 00:18:18;;;;;;;6.07;2.90;;;;;;;;;;5066038;28;20690;-59
2022/04/07 00:20:44;;;;;;;4.17;2.57;;;;;;;;;;5056763;28;20176;-56
2022/04/07 00:23:13;;;;;;;2.67;2.47;;;;;;;;;;5047832;28;20177;-62
2022/04/07 00:25:39;;;;;;;2.37;2.17;;;;;;;;;;5046877;28;20183;-59
2022/04/07 00:28:06;;;;;;;3.30;2.23;;;;;;;;;;5074066;28;20181;-61
2022/04/07 00:30:32;;;;;;;2.00;1.90;;;;;;;;;;5047219;28;20191;-60
2022/04/07 00:32:58;;;;;;;2.30;2.10;;;;;;;;;;5039424;28;20185;-57
2022/04/07 00:35:26;;;;;;;2.37;1.83;;;;;;;;;;5063078;28;20711;-59
2022/04/07 00:37:52;;;;;;;3.40;2.50;;;;;;;;;;5084624;28;20719;-59
2022/04/07 00:40:18;;;;;;;2.53;2.20;;;;;;;;;;5054384;28;20271;-57
2022/04/07 00:42:49;;;;;;;2.33;2.13;;;;;;;;;;5066885;28;20670;-59
2022/04/07 00:45:17;;;;;;;3.17;1.97;;;;;;;;;;5029987;28;20176;-60
2022/04/07 00:47:43;;;;;;;2.50;1.90;;;;;;;;;;5055962;28;20631;-58
2022/04/07 00:50:14;;;;;;;1.77;1.67;;;;;;;;;;5051697;28;20560;-58
2022/04/07 00:52:47;;;;;;;1.60;1.50;;;;;;;;;;5065571;28;20666;-58
2022/04/07 00:55:16;;;;;;;2.17;1.60;;;;;;;;;;5050517;28;20189;-59
2022/04/07 00:57:42;;;;;;;2.63;2.20;;;;;;;;;;5044825;28;20256;-58
2022/04/07 01:00:10;;;;;;;4.67;2.27;;;;;;;;;;5061580;28;20223;-57
2022/04/07 01:02:37;;;;;;;2.17;1.97;;;;;;;;;;5052745;28;20314;-57
2022/04/07 01:05:04;;;;;;;2.20;2.00;;;;;;;;;;5062066;28;20188;-58
2022/04/07 01:07:32;;;;;;;1.97;1.70;;;;;;;;;;5048558;28;20558;-59
2022/04/07 01:09:59;;;;;;;1.93;1.83;;;;;;;;;;5060916;28;20188;-59
2022/04/07 01:12:25;;;;;;;1.90;1.80;;;;;;;;;;5072290;28;20243;-58
2022/04/07 01:14:55;;;;;;;2.90;1.90;;;;;;;;;;5059794;28;20192;-59
2022/04/07 01:17:22;;;;;;;3.83;2.00;;;;;;;;;;5062185;28;20187;-59
2022/04/07 01:19:49;;;;;;;2.17;1.97;;;;;;;;;;5043233;28;20289;-59
2022/04/07 01:22:15;;;;;;;2.03;1.83;;;;;;;;;;5046421;28;20189;-58
2022/04/07 01:24:41;;;;;;;2.30;1.90;;;;;;;;;;5057028;28;20176;-59
2022/04/07 01:27:08;;;;;;;2.97;2.03;;;;;;;;;;5057384;28;20188;-58
2022/04/07 01:29:34;;;;;;;1.90;1.70;;;;;;;;;;5048567;28;20246;-57
2022/04/07 01:32:01;;;;;;;2.90;1.57;;;;;;;;;;5052942;28;20184;-58
2022/04/07 01:34:28;;;;;;;2.13;1.60;;;;;;;;;;5078670;28;20238;-59
2022/04/07 01:36:55;;;;;;;2.10;1.93;;;;;;;;;;5057304;28;20194;-58
2022/04/07 01:39:25;;;;;;;3.00;1.80;;;;;;;;;;5059267;28;20610;-58
2022/04/07 01:41:51;;;;;;;2.27;1.63;;;;;;;;;;5041309;28;20706;-57
2022/04/07 01:44:18;;;;;;;2.10;1.77;;;;;;;;;;5049748;28;20737;-58
2022/04/07 01:46:44;;;;;;;2.83;2.17;;;;;;;;;;5065634;28;20188;-59
2022/04/07 01:49:11;;;;;;;3.00;1.73;;;;;;;;;;5063856;28;20594;-57
2022/04/07 01:51:38;;;;;;;2.87;1.70;;;;;;;;;;5043934;28;20246;-57
2022/04/07 01:54:06;;;;;;;1.53;1.43;;;;;;;;;;5051994;28;20730;-57
2022/04/07 01:56:33;;;;;;;2.40;1.43;;;;;;;;;;5051433;28;20598;-58
2022/04/07 01:58:59;;;;;;;2.43;1.70;;;;;;;;;;5037297;28;20269;-59
2022/04/07 02:01:26;;;;;;;3.27;1.50;;;;;;;;;;5052068;28;20211;-56
2022/04/07 02:03:52;;;;;;;1.67;1.57;;;;;;;;;;5052941;28;20188;-59
2022/04/07 02:06:19;;;;;;;2.30;1.23;;;;;;;;;;5077504;28;20176;-59
2022/04/07 02:08:48;;;;;;;1.43;1.33;;;;;;;;;;5063540;28;20192;-58
2022/04/07 02:11:17;;;;;;;1.97;1.37;;;;;;;;;;5048643;28;20252;-58
2022/04/07 02:13:43;;;;;;;2.47;1.50;;;;;;;;;;5053988;28;20189;-59
2022/04/07 02:16:11;;;;;;;2.13;1.70;;;;;;;;;;5069641;28;20690;-58
2022/04/07 02:18:38;;;;;;;1.47;1.37;;;;;;;;;;5050983;28;20211;-58
2022/04/07 02:21:04;;;;;;;1.53;1.43;;;;;;;;;;5068926;28;20471;-58
2022/04/07 02:23:30;;;;;;;2.10;1.50;;;;;;;;;;5060730;28;20640;-58
2022/04/07 02:25:57;;;;;;;2.80;1.63;;;;;;;;;;5064668;28;20208;-58
2022/04/07 02:28:23;;;;;;;1.90;1.53;;;;;;;;;;5080202;28;20667;-61
2022/04/07 02:30:49;;;;;;;2.80;1.50;;;;;;;;;;5052334;28;20184;-60
2022/04/07 02:33:16;;;;;;;1.40;1.30;;;;;;;;;;5050994;28;20184;-61
2022/04/07 02:35:42;;;;;;;2.63;2.00;;;;;;;;;;5050634;28;20180;-59
2022/04/07 02:38:08;;;;;;;2.00;1.80;;;;;;;;;;5089888;28;20558;-59
2022/04/07 02:40:34;;;;;;;1.60;1.50;;;;;;;;;;5060830;28;20602;-59
2022/04/07 02:43:00;;;;;;;3.87;1.60;;;;;;;;;;5081184;28;20638;-59
2022/04/07 02:45:26;;;;;;;1.77;1.53;;;;;;;;;;5053085;28;20192;-59
2022/04/07 02:47:52;;;;;;;2.83;1.83;;;;;;;;;;5071105;28;20627;-59
2022/04/07 02:50:19;;;;;;;3.27;1.80;;;;;;;;;;5068900;28;20294;-60
2022/04/07 02:52:45;;;;;;;2.27;1.57;;;;;;;;;;5067047;28;20188;-59
2022/04/07 02:55:12;;;;;;;1.70;1.60;;;;;;;;;;5076619;28;20176;-57
2022/04/07 02:57:38;;;;;;;3.17;2.10;;;;;;;;;;5065385;28;20196;-60
2022/04/07 03:00:05;;;;;;;1.70;1.60;;;;;;;;;;5075944;28;20680;-60
2022/04/07 03:02:31;;;;;;;1.77;1.67;;;;;;;;;;5064873;28;20193;-60
2022/04/07 03:04:57;;;;;;;2.03;1.73;;;;;;;;;;5047918;28;20553;-61
2022/04/07 03:07:23;;;;;;;1.70;1.60;;;;;;;;;;5069687;28;20189;-62
2022/04/07 03:09:49;;;;;;;1.57;1.47;;;;;;;;;;5052916;28;20673;-60
2022/04/07 03:12:16;;;;;;;3.63;1.77;;;;;;;;;;5059106;28;20219;-60
2022/04/07 03:14:42;;;;;;;4.10;1.80;;;;;;;;;;5054050;28;20258;-59
2022/04/07 03:17:09;;;;;;;4.80;4.40;;;;;;;;;;5068606;28;20687;-59
2022/04/07 03:19:35;;;;;;;2.73;1.90;;;;;;;;;;5068835;28;20694;-60
2022/04/07 03:22:02;;;;;;;2.30;1.70;;;;;;;;;;5068255;28;20795;-57
2022/04/07 03:24:28;;;;;;;2.87;1.53;;;;;;;;;;5055056;28;20629;-59
2022/04/07 03:26:54;;;;;;;1.83;1.70;;;;;;;;;;5048992;28;20280;-59
2022/04/07 03:29:21;;;;;;;2.03;1.60;;;;;;;;;;5065068;28;20192;-59
2022/04/07 03:31:50;;;;;;;5.17;4.83;;;;;;;;;;5060653;28;20209;-59
2022/04/07 03:34:20;;;;;;;1.77;1.60;;;;;;;;;;5053441;28;20199;-59
2022/04/07 03:36:47;;;;;;;3.13;1.53;;;;;;;;;;5055746;28;20295;-58
2022/04/07 03:39:13;;;;;;;1.63;1.50;;;;;;;;;;5055779;28;20286;-58
2022/04/07 03:41:40;;;;;;;3.20;1.77;;;;;;;;;;5050012;28;20180;-58
2022/04/07 03:44:09;;;;;;;2.67;1.97;;;;;;;;;;5034975;28;20181;-58
2022/04/07 03:46:36;;;;;;;5.30;2.13;;;;;;;;;;5050348;28;20284;-57
2022/04/07 03:49:03;;;;;;;3.10;1.70;;;;;;;;;;5064182;28;20242;-58
2022/04/07 03:51:29;;;;;;;5.53;1.73;;;;;;;;;;5066329;28;20270;-58
2022/04/07 03:53:55;;;;;;;1.70;1.60;;;;;;;;;;5068738;28;20189;-58
2022/04/07 03:56:21;;;;;;;3.00;1.77;;;;;;;;;;5050003;28;20630;-59
2022/04/07 03:58:48;;;;;;;3.07;1.70;;;;;;;;;;5078963;28;20207;-58
2022/04/07 04:01:14;;;;;;;3.53;2.83;;;;;;;;;;5047728;28;20552;-58
2022/04/07 04:03:40;;;;;;;1.67;1.57;;;;;;;;;;5041694;28;20165;-58
2022/04/07 04:06:06;;;;;;;3.40;1.90;;;;;;;;;;5069096;28;20738;-58
2022/04/07 04:08:32;;;;;;;2.77;1.70;;;;;;;;;;5079820;28;20539;-56
2022/04/07 04:10:59;;;;;;;1.77;1.67;;;;;;;;;;5065778;28;20228;-58
2022/04/07 04:13:26;;;;;;;4.90;1.80;;;;;;;;;;5054161;28;20191;-58
2022/04/07 04:15:52;;;;;;;1.83;1.40;;;;;;;;;;5046301;28;20199;-58
2022/04/07 04:18:19;;;;;;;3.00;1.60;;;;;;;;;;5059191;28;20212;-62
2022/04/07 04:20:46;;;;;;;2.27;1.63;;;;;;;;;;5033617;28;20199;-57
2022/04/07 04:23:13;;;;;;;2.00;1.73;;;;;;;;;;5055009;28;20206;-57
2022/04/07 04:25:39;;;;;;;5.23;1.60;;;;;;;;;;5049495;28;20551;-58
2022/04/07 04:28:05;;;;;;;2.00;1.80;;;;;;;;;;5050047;28;20184;-57
2022/04/07 04:30:32;;;;;;;2.83;1.63;;;;;;;;;;5061186;28;20178;-57
2022/04/07 04:32:58;;;;;;;1.20;1.10;;;;;;;;;;5053034;28;20196;-59
2022/04/07 04:35:24;;;;;;;2.57;1.30;;;;;;;;;;5037863;28;20185;-59
2022/04/07 04:37:50;;;;;;;2.80;1.50;;;;;;;;;;5041200;28;20180;-60
2022/04/07 04:40:18;;;;;;;3.93;1.37;;;;;;;;;;5046915;28;20578;-57
2022/04/07 04:42:44;;;;;;;3.53;2.40;;;;;;;;;;5037138;28;20226;-58
2022/04/07 04:45:11;;;;;;;3.27;1.70;;;;;;;;;;5036311;28;20600;-60
2022/04/07 04:47:40;;;;;;;4.30;1.93;;;;;;;;;;5071536;28;20180;-59
2022/04/07 04:50:06;;;;;;;2.80;1.60;;;;;;;;;;5072078;28;20196;-59
2022/04/07 04:52:33;;;;;;;2.60;2.00;;;;;;;;;;5076669;28;20195;-59
2022/04/07 04:54:59;;;;;;;1.40;1.30;;;;;;;;;;5068429;28;20467;-59
2022/04/07 04:57:26;;;;;;;2.13;1.67;;;;;;;;;;5061766;28;20306;-58
2022/04/07 04:59:52;;;;;;;2.10;1.53;;;;;;;;;;5045021;28;20197;-60
2022/04/07 05:02:18;;;;;;;3.40;3.03;;;;;;;;;;5045015;28;20188;-60
2022/04/07 05:04:44;;;;;;;2.03;1.90;;;;;;;;;;5053047;28;20632;-58
2022/04/07 05:07:10;;;;;;;2.43;2.10;;;;;;;;;;5068393;28;20612;-62
2022/04/07 05:09:38;;;;;;;3.07;1.93;;;;;;;;;;5024695;28;20648;-62
2022/04/07 05:12:06;;;;;;;1.97;1.87;;;;;;;;;;5042712;28;20225;-62
2022/04/07 05:14:32;;;;;;;2.33;1.70;;;;;;;;;;5050722;28;20275;-62
2022/04/07 05:16:58;;;;;;;2.07;1.70;;;;;;;;;;5068035;28;20264;-61
2022/04/07 05:19:24;;;;;;;2.80;1.70;;;;;;;;;;5066094;28;20200;-61
2022/04/07 05:21:50;;;;;;;2.13;1.80;;;;;;;;;;5068176;28;20262;-62
2022/04/07 05:24:18;;;;;;;1.80;1.40;;;;;;;;;;5053278;28;20188;-62
2022/04/07 05:26:44;;;;;;;2.30;2.10;;;;;;;;;;5066936;28;20200;-60
2022/04/07 05:29:10;;;;;;;5.87;1.87;;;;;;;;;;5071140;28;20184;-61
2022/04/07 05:31:36;;;;;;;2.17;1.37;;;;;;;;;;5072891;28;20483;-61
2022/04/07 05:34:02;;;;;;;2.20;1.77;;;;;;;;;;5066320;28;20227;-62
2022/04/07 05:36:28;;;;;;;1.70;1.60;;;;;;;;;;5068225;28;20237;-59
2022/04/07 05:38:55;;;;;;;2.50;1.53;;;;;;;;;;5049483;28;20295;-59
2022/04/07 05:41:23;;;;;;;2.57;1.97;;;;;;;;;;5068554;28;20256;-61
2022/04/07 05:43:50;;;;;;;1.73;1.63;;;;;;;;;;5050157;28;20574;-61
2022/04/07 05:46:16;;;;;;;1.70;1.60;;;;;;;;;;5077630;28;20210;-61
2022/04/07 05:48:42;;;;;;;2.17;1.70;;;;;;;;;;5076060;28;20184;-61
2022/04/07 05:51:08;;;;;;;2.60;1.40;;;;;;;;;;5067795;28;20638;-61
2022/04/07 05:53:34;;;;;;;2.17;1.97;;;;;;;;;;5087602;28;20182;-61
2022/04/07 05:56:00;;;;;;;2.13;1.43;;;;;;;;;;5062247;28;20177;-62
2022/04/07 05:58:26;;;;;;;3.00;1.53;;;;;;;;;;5047886;28;20228;-60
2022/04/07 06:00:53;;;;;;;3.83;1.70;;;;;;;;;;5049755;28;20537;-62
2022/04/07 06:03:19;;;;;;;1.90;1.40;;;;;;;;;;5067519;28;20618;-59
2022/04/07 06:05:45;;;;;;;2.60;1.57;;;;;;;;;;5045529;28;20180;-62
2022/04/07 06:08:11;;;;;;;2.47;1.47;;;;;;;;;;5052055;28;20180;-61
2022/04/07 06:10:38;;;;;;;1.50;1.40;;;;;;;;;;5072314;28;20536;-61
2022/04/07 06:13:04;;;;;;;2.77;1.50;;;;;;;;;;5026181;28;20710;-59
2022/04/07 06:15:30;;;;;;;1.47;1.37;;;;;;;;;;5045525;28;20260;-61
2022/04/07 06:17:56;;;;;;;1.67;1.50;;;;;;;;;;5036694;28;20178;-61
2022/04/07 06:20:23;;;;;;;1.40;1.30;;;;;;;;;;5048033;28;20666;-61
2022/04/07 06:22:49;;;;;;;2.90;1.57;;;;;;;;;;5053598;28;20568;-62
2022/04/07 06:25:15;;;;;;;1.40;1.20;;;;;;;;;;5045023;28;20651;-62
2022/04/07 06:27:42;;;;;;;3.27;1.60;;;;;;;;;;5040421;28;20538;-61
2022/04/07 06:30:12;;;;;;;2.33;1.30;;;;;;;;;;5047625;28;20188;-61
2022/04/07 06:32:39;;;;;;;3.27;1.50;;;;;;;;;;5054276;28;20184;-60
2022/04/07 06:35:10;;;;;;;2.30;1.30;;;;;;;;;;5049335;28;20628;-60
2022/04/07 06:37:53;;;;;;;2.60;1.70;;;;;;;;;;5031216;28;20326;-61
2022/04/07 06:40:21;;;;;;;2.53;1.40;;;;;;;;;;5051024;28;20335;-60
2022/04/07 06:42:50;;;;;;;1.50;1.40;;;;;;;;;;5051223;28;20250;-59
2022/04/07 06:45:17;;;;;;;1.10;1.10;;;;;;;;;;5046002;28;20195;-59
2022/04/07 06:47:43;;;;;;;1.23;1.13;;;;;;;;;;5061565;28;20541;-60
2022/04/07 06:50:11;;;;;;;1.80;1.13;;;;;;;;;;5015568;28;20189;-60
2022/04/07 06:52:40;;;;;;;2.03;1.40;;;;;;;;;;5023702;28;20182;-58
2022/04/07 06:55:07;;;;;;;2.17;1.40;;;;;;;;;;5044002;28;20637;-62
2022/04/07 06:57:47;;;;;;;2.50;1.47;;;;;;;;;;5025646;28;20210;-61
2022/04/07 07:00:14;;;;;;;1.30;1.10;;;;;;;;;;5045626;28;20660;-57
2022/04/07 07:02:40;;;;;;;2.10;1.60;;;;;;;;;;5034220;28;20186;-57
2022/04/07 07:05:07;;;;;;;1.10;1.00;;;;;;;;;;5051770;28;20203;-58
2022/04/07 07:07:33;;;;;;;1.40;1.30;;;;;;;;;;5031230;28;20559;-59
2022/04/07 07:09:59;;;;;;;4.67;1.30;;;;;;;;;;5050693;28;20188;-58
2022/04/07 07:12:25;;;;;;;1.20;1.10;;;;;;;;;;5075174;28;20290;-58
2022/04/07 07:14:51;;;;;;;1.60;1.20;;;;;;;;;;5070372;28;20259;-58
2022/04/07 07:17:17;;;;;;;1.70;0.97;;;;;;;;;;5071874;28;20624;-59
2022/04/07 07:19:43;;;;;;;1.67;1.40;;;;;;;;;;5048642;28;20202;-60
2022/04/07 07:22:10;;;;;;;1.33;1.23;;;;;;;;;;5062347;28;20275;-60
2022/04/07 07:24:39;;;;;;;2.20;1.20;;;;;;;;;;5069900;28;20546;-57
2022/04/07 07:27:05;;;;;;;1.37;1.20;;;;;;;;;;5052265;28;20188;-59
2022/04/07 07:29:31;;;;;;;3.40;1.47;;;;;;;;;;5051993;28;20216;-57
2022/04/07 07:31:57;;;;;;;1.10;0.90;;;;;;;;;;5052383;28;20272;-59
2022/04/07 07:34:23;;;;;;;1.83;1.30;;;;;;;;;;5050220;28;20211;-58
2022/04/07 07:36:50;;;;;;;1.53;1.20;;;;;;;;;;5079355;28;20180;-58
2022/04/07 07:39:16;;;;;;;1.30;1.17;;;;;;;;;;5059477;28;20205;-59
2022/04/07 07:41:42;;;;;;;1.30;1.20;;;;;;;;;;5053454;28;20186;-60
2022/04/07 07:44:08;;;;;;;1.13;1.07;;;;;;;;;;5082277;28;20184;-61
2022/04/07 07:46:34;;;;;;;2.47;1.27;;;;;;;;;;5072797;28;20180;-60
2022/04/07 07:49:01;;;;;;;1.20;1.10;;;;;;;;;;5067968;28;20176;-59
2022/04/07 07:51:30;;;;;;;2.70;1.00;;;;;;;;;;5051482;28;20179;-60
2022/04/07 07:53:57;;;;;;;1.27;1.00;;;;;;;;;;5051379;28;20307;-59
2022/04/07 07:56:23;;;;;;;2.53;1.10;;;;;;;;;;5051857;28;20557;-59
2022/04/07 07:58:49;;;;;;;0.90;0.90;;;;;;;;;;5076423;28;20208;-60
2022/04/07 08:01:18;;;;;;;1.53;0.70;;;;;;;;;;5070161;28;20263;-63
2022/04/07 08:03:45;;;;;;;0.90;0.80;;;;;;;;;;5055755;28;20263;-62
2022/04/07 08:06:11;;;;;;;1.53;1.10;;;;;;;;;;5070051;28;20602;-63
2022/04/07 08:08:37;;;;;;;1.13;1.00;;;;;;;;;;5073184;28;20556;-60
2022/04/07 08:11:03;;;;;;;1.30;1.20;;;;;;;;;;5069359;28;20184;-60
2022/04/07 08:13:29;;;;;;;0.60;0.60;;;;;;;;;;5086352;28;20176;-61
2022/04/07 08:15:56;;;;;;;1.00;0.90;;;;;;;;;;5082488;28;20200;-61
2022/04/07 08:18:23;;;;;;;1.17;0.90;;;;;;;;;;5069412;28;20283;-59
2022/04/07 08:20:49;;;;;;;0.80;0.80;;;;;;;;;;5031872;28;20173;-60
2022/04/07 08:23:15;;;;;;;1.90;0.90;;;;;;;;;;5050201;28;20183;-61
2022/04/07 08:25:42;;;;;;;2.47;0.97;;;;;;;;;;5051076;28;20184;-60
2022/04/07 08:28:08;;;;;;;1.73;1.10;;;;;;;;;;5069327;28;20180;-61
2022/04/07 08:30:34;;;;;;;0.50;0.50;;;;;;;;;;5050642;28;20183;-61
2022/04/07 08:33:01;;;;;;;0.82;0.80;;;;;;;;;;5050457;28;20932;-60
2022/04/07 08:35:28;;;;;;;0.80;0.80;;;;;;;;;;5047324;28;20197;-61
2022/04/07 08:37:54;;;;;;;1.87;1.10;;;;;;;;;;5067180;28;20753;-61
2022/04/07 08:40:21;;;;;;;0.70;0.70;;;;;;;;;;5071492;28;20196;-60
2022/04/07 08:42:48;;;;;;;0.93;0.73;;;;;;;;;;5051066;28;20243;-60
2022/04/07 08:45:14;;;;;;;1.07;1.00;;;;;;;;;;5069925;28;20186;-59
2022/04/07 08:47:48;;;;;;;1.67;0.83;;;;;;;;;;5068372;28;20179;-59
2022/04/07 08:50:16;;;;;;;1.50;0.90;;;;;;;;;;5053345;28;20179;-60
2022/04/07 08:52:42;;;;;;;1.13;0.90;;;;;;;;;;5068578;28;20198;-59
2022/04/07 08:55:09;;;;;;;0.93;0.93;;;;;;;;;;5055764;28;20526;-62
2022/04/07 08:57:36;;;;;;;0.63;0.63;;;;;;;;;;5049833;28;20200;-61
2022/04/07 09:00:02;;;;;;;1.27;0.90;;;;;;;;;;5049405;28;20283;-61
2022/04/07 09:02:28;;;;;;;1.03;0.97;;;;;;;;;;5034727;28;20259;-61
2022/04/07 09:05:01;;;;;;;1.07;0.97;;;;;;;;;;5049569;28;20185;-60
2022/04/07 09:07:31;;;;;;;0.60;0.60;;;;;;;;;;5050614;28;20188;-58
2022/04/07 09:10:01;;;;;;;0.90;0.90;;;;;;;;;;5067575;28;20183;-60
2022/04/07 09:12:27;;;;;;;0.80;0.70;;;;;;;;;;5070782;28;20718;-60
2022/04/07 09:14:58;;;;;;;0.80;0.80;;;;;;;;;;5067749;28;20588;-60
2022/04/07 09:17:24;;;;;;;1.73;0.80;;;;;;;;;;5049909;28;20549;-61
2022/04/07 09:19:50;;;;;;;0.83;0.80;;;;;;;;;;5049184;28;20204;-62
2022/04/07 09:22:17;;;;;;;0.73;0.73;;;;;;;;;;5050806;28;20583;-61
2022/04/07 09:24:43;;;;;;;0.90;0.90;;;;;;;;;;5040676;28;20177;-60
2022/04/07 09:27:12;;;;;;;0.70;0.70;;;;;;;;;;5052867;28;20172;-60
2022/04/07 09:29:39;;;;;;;3.07;0.90;;;;;;;;;;5052137;28;20639;-59
2022/04/07 09:32:05;;;;;;;1.17;0.90;;;;;;;;;;5050239;28;20188;-61
2022/04/07 09:34:32;;;;;;;2.03;0.83;;;;;;;;;;5049209;28;20180;-61
2022/04/07 09:37:05;;;;;;;0.70;0.70;;;;;;;;;;5050562;28;20192;-61
2022/04/07 09:39:34;;;;;;;1.30;0.93;;;;;;;;;;5053798;28;20188;-61
2022/04/07 09:42:20;;;;;;;1.20;0.90;;;;;;;;;;5074879;28;20577;-61
2022/04/07 09:44:51;;;;;;;0.70;0.70;;;;;;;;;;5074366;28;20310;-60
2022/04/07 09:47:17;;;;;;;1.10;0.83;;;;;;;;;;5074462;28;20168;-60
2022/04/07 09:49:43;;;;;;;2.67;0.90;;;;;;;;;;5066247;28;20656;-59
2022/04/07 09:52:11;;;;;;;1.90;0.80;;;;;;;;;;5068671;28;20709;-61
2022/04/07 09:54:41;;;;;;;1.30;1.00;;;;;;;;;;5067448;28;20176;-61
2022/04/07 09:57:11;;;;;;;1.10;1.00;;;;;;;;;;5069698;28;20253;-60
2022/04/07 09:59:43;;;;;;;1.07;0.90;;;;;;;;;;5074818;28;20258;-61
2022/04/07 10:02:10;;;;;;;1.50;1.17;;;;;;;;;;5036058;28;20181;-61
2022/04/07 10:04:37;;;;;;;2.23;1.10;;;;;;;;;;5079146;28;20600;-61
2022/04/07 10:07:05;;;;;;;0.77;0.77;;;;;;;;;;5068360;28;20555;-59
2022/04/07 10:09:33;;;;;;;1.97;1.10;;;;;;;;;;5048698;28;20231;-61
2022/04/07 10:12:03;;;;;;;1.00;1.00;;;;;;;;;;5068132;28;20269;-59
2022/04/07 10:14:30;;;;;;;1.37;1.27;;;;;;;;;;5053182;28;20242;-60
2022/04/07 10:16:56;;;;;;;1.70;1.10;;;;;;;;;;5053732;28;20230;-62
2022/04/07 10:19:25;;;;;;;1.30;1.20;;;;;;;;;;5070128;28;20203;-60
2022/04/07 10:21:55;;;;;;;1.83;1.03;;;;;;;;;;5053498;28;20180;-60
2022/04/07 10:24:34;;;;;;;1.20;1.10;;;;;;;;;;5070650;28;20593;-63
2022/04/07 10:27:02;;;;;;;1.30;1.20;;;;;;;;;;5056998;28;20263;-61
2022/04/07 10:29:29;;;;;;;1.30;1.20;;;;;;;;;;5071423;28;20685;-60
2022/04/07 10:32:11;;;;;;;2.17;1.80;;;;;;;;;;5053684;28;20552;-61
2022/04/07 10:34:42;;;;;;;3.93;1.67;;;;;;;;;;5068159;28;20655;-61
2022/04/07 10:37:09;;;;;;;1.90;1.70;;;;;;;;;;5053607;28;20283;-61
2022/04/07 10:39:37;;;;;;;3.63;1.93;;;;;;;;;;5070697;28;20200;-62
2022/04/07 10:42:05;;;;;;;3.53;2.20;;;;;;;;;;5058469;28;20210;-60
2022/04/07 10:44:31;;;;;;;2.00;1.80;;;;;;;;;;5062908;28;20269;-60
2022/04/07 10:47:10;;;;;;;4.07;2.20;;;;;;;;;;5051683;28;20204;-63
2022/04/07 10:49:46;;;;;;;3.20;2.03;;;;;;;;;;5049644;28;20179;-62
2022/04/07 10:52:25;;;;;;;3.20;2.27;;;;;;;;;;5053500;28;20628;-62
2022/04/07 10:55:11;;;;;;;2.17;1.90;;;;;;;;;;5052709;28;20181;-61
2022/04/07 10:57:57;;;;;;;3.93;2.13;;;;;;;;;;5053223;28;20196;-60
2022/04/07 11:00:37;;;;;;;2.43;2.00;;;;;;;;;;5070655;28;20240;-62
2022/04/07 11:03:14;;;;;;;1.73;1.63;;;;;;;;;;5051754;28;20790;-61
2022/04/07 11:05:54;;;;;;;1.30;1.20;;;;;;;;;;5072120;28;20172;-61
2022/04/07 11:08:23;;;;;;;1.67;1.40;;;;;;;;;;5052953;28;20241;-60
2022/04/07 11:10:52;;;;;;;3.37;1.90;;;;;;;;;;5059947;28;20670;-61
2022/04/07 11:13:19;;;;;;;1.83;1.40;;;;;;;;;;5051373;28;20299;-60
2022/04/07 11:15:45;;;;;;;2.00;1.30;;;;;;;;;;5047416;28;20662;-60
2022/04/07 11:18:20;;;;;;;1.70;1.40;;;;;;;;;;5071354;28;20176;-59
2022/04/07 11:21:07;;;;;;;2.23;1.40;;;;;;;;;;5052585;28;20208;-59
2022/04/07 11:23:53;;;;;;;1.30;1.13;;;;;;;;;;5052191;28;20577;-59
2022/04/07 11:26:20;;;;;;;1.63;1.50;;;;;;;;;;5067796;28;20187;-59
2022/04/07 11:28:59;;;;;;;1.97;1.40;;;;;;;;;;5055617;28;20600;-59
2022/04/07 11:31:58;;;;;;;1.50;1.40;;;;;;;;;;5073089;28;20188;-57
2022/04/07 11:34:39;;;;;;;1.70;1.50;;;;;;;;;;5015100;28;20730;-59
2022/04/07 11:37:14;;;;;;;2.03;1.30;;;;;;;;;;5090544;28;20682;-58
2022/04/07 11:39:53;;;;;;;2.53;1.10;;;;;;;;;;5051990;28;20204;-58
2022/04/07 11:42:21;;;;;;;1.10;1.10;;;;;;;;;;5077274;28;20179;-59
2022/04/07 11:44:48;;;;;;;1.50;1.30;;;;;;;;;;5064161;28;20190;-61
2022/04/07 11:47:23;;;;;;;1.43;1.30;;;;;;;;;;5065896;28;20758;-59
2022/04/07 11:49:50;;;;;;;2.27;1.20;;;;;;;;;;5071116;28;20179;-60
2022/04/07 11:52:16;;;;;;;1.20;1.10;;;;;;;;;;5080866;28;20506;-60
2022/04/07 11:54:43;;;;;;;1.63;1.50;;;;;;;;;;5057859;28;20180;-61
2022/04/07 11:57:10;;;;;;;2.97;1.57;;;;;;;;;;5073292;28;20207;-59
2022/04/07 11:59:37;;;;;;;2.70;2.50;;;;;;;;;;5069534;28;20279;-59
2022/04/07 12:02:04;;;;;;;2.60;2.40;;;;;;;;;;5066488;28;20180;-58
2022/04/07 12:04:34;;;;;;;4.97;1.97;;;;;;;;;;5068504;28;20708;-60
2022/04/07 12:07:02;;;;;;;3.73;1.50;;;;;;;;;;5064599;28;20186;-58
2022/04/07 12:09:28;;;;;;;1.93;1.43;;;;;;;;;;5057822;28;20472;-59
2022/04/07 12:11:54;;;;;;;1.60;1.40;;;;;;;;;;5031763;28;20256;-59
2022/04/07 12:14:24;;;;;;;1.90;1.50;;;;;;;;;;5034509;28;20185;-57
2022/04/07 12:16:51;;;;;;;3.60;1.90;;;;;;;;;;5031972;28;20162;-57
2022/04/07 12:19:19;;;;;;;2.80;1.53;;;;;;;;;;5041446;28;20250;-58
2022/04/07 12:21:55;;;;;;;2.30;1.67;;;;;;;;;;5073574;28;20942;-58
2022/04/07 12:24:29;;;;;;;3.40;1.63;;;;;;;;;;5072945;28;20229;-57
2022/04/07 12:26:57;;;;;;;2.67;1.70;;;;;;;;;;5052086;28;20179;-57
2022/04/07 12:29:25;;;;;;;1.47;1.20;;;;;;;;;;5069040;28;20324;-58
2022/04/07 12:31:58;;;;;;;2.43;1.43;;;;;;;;;;5069109;28;20609;-57
2022/04/07 12:34:25;;;;;;;1.70;1.43;;;;;;;;;;5036853;28;20192;-58
2022/04/07 12:36:52;;;;;;;4.53;1.73;;;;;;;;;;5069350;28;20187;-57
2022/04/07 12:39:20;;;;;;;3.87;1.87;;;;;;;;;;5051088;28;20218;-56
2022/04/07 12:41:54;;;;;;;2.07;1.50;;;;;;;;;;5058657;28;20769;-58
2022/04/07 12:44:21;;;;;;;3.67;1.77;;;;;;;;;;5042912;28;20172;-58
2022/04/07 12:46:54;;;;;;;3.50;2.13;;;;;;;;;;5050541;28;20252;-57
2022/04/07 12:49:35;;;;;;;6.03;1.80;;;;;;;;;;5046616;28;20204;-56
2022/04/07 12:52:06;;;;;;;4.27;2.10;;;;;;;;;;5062636;28;20215;-57
2022/04/07 12:54:33;;;;;;;4.73;2.10;;;;;;;;;;5049019;28;20184;-58
2022/04/07 12:57:10;;;;;;;3.13;2.17;;;;;;;;;;5038400;28;20254;-58
2022/04/07 12:59:36;;;;;;;5.73;2.50;;;;;;;;;;5038436;28;20324;-58
2022/04/07 13:02:02;;;;;;;4.60;2.30;;;;;;;;;;5050552;28;20517;-58
2022/04/07 13:04:47;;;;;;;2.83;2.03;;;;;;;;;;5068232;28;20181;-57
2022/04/07 13:07:14;;;;;;;4.80;2.23;;;;;;;;;;5042362;28;20179;-58
2022/04/07 13:09:40;;;;;;;5.60;2.33;;;;;;;;;;5077151;28;20184;-57
2022/04/07 13:12:07;;;;;;;5.07;2.10;;;;;;;;;;5069440;28;20235;-57
2022/04/07 13:14:34;;;;;;;7.53;1.93;;;;;;;;;;5065334;28;20177;-57
2022/04/07 13:17:00;;;;;;;3.70;1.67;;;;;;;;;;5067750;28;20272;-57
2022/04/07 13:19:27;;;;;;;4.40;1.80;;;;;;;;;;5055727;28;20236;-57
2022/04/07 13:21:53;;;;;;;6.07;2.63;;;;;;;;;;5064986;28;20283;-58
2022/04/07 13:24:19;;;;;;;3.63;1.80;;;;;;;;;;5065681;28;20177;-58
2022/04/07 13:26:47;;;;;;;2.90;2.23;;;;;;;;;;5047685;28;20180;-57
2022/04/07 13:29:13;;;;;;;2.97;1.90;;;;;;;;;;5047757;28;20181;-58
2022/04/07 13:31:40;;;;;;;3.03;1.70;;;;;;;;;;5063070;28;20635;-58
2022/04/07 13:34:06;;;;;;;3.33;1.70;;;;;;;;;;5051126;28;20268;-56
2022/04/07 13:36:33;;;;;;;3.83;2.00;;;;;;;;;;5043991;28;20203;-56
2022/04/07 13:38:59;;;;;;;2.80;1.87;;;;;;;;;;5068728;28;20680;-56
2022/04/07 13:41:26;;;;;;;4.03;2.00;;;;;;;;;;5075741;28;20180;-57
2022/04/07 13:43:52;;;;;;;5.07;2.50;;;;;;;;;;5044960;28;20609;-55
2022/04/07 13:46:18;;;;;;;5.20;2.27;;;;;;;;;;5067928;28;20187;-56
2022/04/07 13:48:53;;;;;;;2.53;1.73;;;;;;;;;;5065621;28;20188;-59
2022/04/07 13:51:20;;;;;;;3.23;1.73;;;;;;;;;;5048115;28;20176;-59
2022/04/07 13:53:47;;;;;;;4.17;2.30;;;;;;;;;;5045093;28;20219;-57
2022/04/07 13:56:13;;;;;;;3.00;2.43;;;;;;;;;;5052212;28;20184;-57
2022/04/07 13:58:39;;;;;;;4.67;2.37;;;;;;;;;;5063465;28;20203;-56
2022/04/07 14:01:05;;;;;;;6.37;2.80;;;;;;;;;;5067788;28;20176;-57
2022/04/07 14:03:32;;;;;;;4.57;2.07;;;;;;;;;;5066671;28;20170;-57
2022/04/07 14:05:59;;;;;;;3.33;1.50;;;;;;;;;;5053231;28;20212;-57
2022/04/07 14:08:29;;;;;;;5.57;2.23;;;;;;;;;;5072999;28;20187;-58
2022/04/07 14:10:55;;;;;;;3.07;1.83;;;;;;;;;;5068665;28;20157;-57
2022/04/07 14:13:23;;;;;;;6.00;1.67;;;;;;;;;;5069108;28;20260;-57
2022/04/07 14:15:50;;;;;;;5.43;1.73;;;;;;;;;;5067645;28;20229;-58
2022/04/07 14:18:17;;;;;;;3.80;1.90;;;;;;;;;;5060795;28;20172;-55
2022/04/07 14:20:47;;;;;;;3.80;1.90;;;;;;;;;;5050992;28;20293;-56
2022/04/07 14:23:13;;;;;;;7.00;3.20;;;;;;;;;;5050298;28;20292;-57
2022/04/07 14:25:40;;;;;;;3.80;2.30;;;;;;;;;;5065225;28;20187;-56
2022/04/07 14:28:07;;;;;;;4.00;2.13;;;;;;;;;;5074386;28;20977;-57
2022/04/07 14:30:34;;;;;;;4.77;2.10;;;;;;;;;;5052554;28;20184;-56
2022/04/07 14:33:02;;;;;;;4.57;2.07;;;;;;;;;;5067718;28;20217;-59
2022/04/07 14:35:30;;;;;;;3.80;1.77;;;;;;;;;;5038217;28;20193;-58
2022/04/07 14:37:59;;;;;;;6.40;2.30;;;;;;;;;;5065994;28;20192;-59
2022/04/07 14:40:26;;;;;;;5.43;2.03;;;;;;;;;;5042238;28;20204;-58
2022/04/07 14:42:52;;;;;;;3.33;2.23;;;;;;;;;;5050409;28;20277;-60
2022/04/07 14:45:19;;;;;;;3.43;2.17;;;;;;;;;;5061455;28;20204;-56
2022/04/07 14:47:45;;;;;;;2.27;1.57;;;;;;;;;;5066188;28;20208;-59